Avalon, Australia
Current Conditions -  °F | °C
As of 9:30 PM on Thursday 29 Jan 2015 (Local Time) from YMAV Reporting Station
Overcast Overcast  
Wind Chill: 63°   Ceiling: 3100
Heat Index: 63°   Visibility: 6mi
Dew Point: 52°   Wind: 14mph
Humidity: 68%   Direction: 150°SSE
Pressure: 30.09"   Gusts: NA
Location:  38.03°S, 144.47°E
Report Text: YMAV 291030Z AUTO 15012KT 9999 // BKN031 OVC041 17/11 Q1019
Loading
Personal Weather Stations






























Interactive Weather Map New forecast layout! Learn more

10-Day Weather Forecast

Advertisements
Track Severe Weather on mobile